createdAt,value
2019-03-09T00:02:26.770Z,3.62
2019-03-09T00:04:57.302Z,3.40
2019-03-09T00:07:27.176Z,3.05
2019-03-09T00:09:56.724Z,2.72
2019-03-09T00:12:26.335Z,2.80
2019-03-09T00:14:55.916Z,2.55
2019-03-09T00:17:25.589Z,2.40
2019-03-09T00:19:57.423Z,2.50
2019-03-09T00:22:27.060Z,2.30
2019-03-09T00:24:58.396Z,2.10
2019-03-09T00:27:32.207Z,2.27
2019-03-09T00:30:21.537Z,2.70
2019-03-09T00:32:51.098Z,2.63
2019-03-09T00:35:20.527Z,3.22
2019-03-09T00:37:50.088Z,3.80
2019-03-09T00:40:19.963Z,2.90
2019-03-09T00:42:49.545Z,3.50
2019-03-09T00:45:19.130Z,3.10
2019-03-09T00:47:48.730Z,3.97
2019-03-09T00:50:18.334Z,3.50
2019-03-09T00:52:48.145Z,3.13
2019-03-09T00:55:17.610Z,3.60
2019-03-09T00:57:48.651Z,3.58
2019-03-09T01:00:19.449Z,3.58
2019-03-09T01:02:51.173Z,3.60
2019-03-09T01:05:21.001Z,2.90
2019-03-09T01:07:50.713Z,2.53
2019-03-09T01:10:20.442Z,2.90
2019-03-09T01:12:50.366Z,2.62
2019-03-09T01:15:20.110Z,3.40
2019-03-09T01:17:49.609Z,3.25
2019-03-09T01:20:19.215Z,2.70
2019-03-09T01:22:48.744Z,2.60
2019-03-09T01:25:18.305Z,2.82
2019-03-09T01:27:48.948Z,2.40
2019-03-09T01:30:18.992Z,2.37
2019-03-09T01:32:48.516Z,2.40
2019-03-09T01:35:18.104Z,2.63
2019-03-09T01:37:47.901Z,2.30
2019-03-09T01:40:17.545Z,2.17
2019-03-09T01:42:47.124Z,2.17
2019-03-09T01:45:17.292Z,1.55
2019-03-09T01:47:46.731Z,2.12
2019-03-09T01:50:16.389Z,2.40
2019-03-09T01:52:45.947Z,1.90
2019-03-09T01:55:15.697Z,2.35
2019-03-09T01:57:45.182Z,4.08
2019-03-09T02:00:19.698Z,3.75
2019-03-09T02:02:50.256Z,3.04
2019-03-09T02:05:25.601Z,3.08
2019-03-09T02:07:55.156Z,3.00
2019-03-09T02:10:24.741Z,3.15
2019-03-09T02:12:54.295Z,3.12
2019-03-09T02:15:23.951Z,2.30
2019-03-09T02:17:53.516Z,2.17
2019-03-09T02:20:23.072Z,2.37
2019-03-09T02:22:53.201Z,2.40
2019-03-09T02:25:23.571Z,2.38
2019-03-09T02:27:53.034Z,2.12
2019-03-09T02:30:22.589Z,2.10
2019-03-09T02:32:52.004Z,1.90
2019-03-09T02:35:21.737Z,1.90
2019-03-09T02:37:51.277Z,1.75
2019-03-09T02:40:23.250Z,1.80
2019-03-09T02:42:53.029Z,1.52
2019-03-09T02:45:25.275Z,1.87
2019-03-09T02:47:54.866Z,1.80
2019-03-09T02:50:25.396Z,1.57
2019-03-09T02:52:54.943Z,1.55
2019-03-09T02:55:24.475Z,1.60
2019-03-09T02:57:54.077Z,1.57
2019-03-09T03:00:23.649Z,1.80
2019-03-09T03:03:09.168Z,1.67
2019-03-09T03:05:38.812Z,2.10
2019-03-09T03:08:08.323Z,8.10
2019-03-09T03:10:37.860Z,6.62
2019-03-09T03:13:07.357Z,5.40
2019-03-09T03:15:37.602Z,4.75
2019-03-09T03:18:07.226Z,7.53
2019-03-09T03:20:36.894Z,4.72
2019-03-09T03:23:06.433Z,3.10
2019-03-09T03:25:36.040Z,2.62
2019-03-09T03:28:05.698Z,2.27
2019-03-09T03:30:35.313Z,2.00
2019-03-09T03:33:05.729Z,1.86
2019-03-09T03:35:35.499Z,2.20
2019-03-09T03:38:05.181Z,1.67
2019-03-09T03:40:34.930Z,3.00
2019-03-09T03:43:05.489Z,3.77
2019-03-09T03:45:35.156Z,2.72
2019-03-09T03:48:05.858Z,4.10
2019-03-09T03:50:35.472Z,5.10
2019-03-09T03:53:05.107Z,2.87
2019-03-09T03:55:34.803Z,4.00
2019-03-09T03:58:04.586Z,4.08
2019-03-09T04:00:34.219Z,4.00
2019-03-09T04:03:04.021Z,3.70
2019-03-09T04:05:33.616Z,3.65
2019-03-09T04:08:03.264Z,3.33
2019-03-09T04:10:32.777Z,3.52
2019-03-09T04:13:02.503Z,3.27
2019-03-09T04:15:32.367Z,2.75
2019-03-09T04:18:02.077Z,2.02
2019-03-09T04:20:31.594Z,2.15
2019-03-09T04:23:01.295Z,1.98
2019-03-09T04:25:30.896Z,1.73
2019-03-09T04:28:00.593Z,1.70
2019-03-09T04:30:57.511Z,1.85
2019-03-09T04:33:27.213Z,1.80
2019-03-09T04:35:56.782Z,1.77
2019-03-09T04:38:26.281Z,1.70
2019-03-09T04:40:57.078Z,1.80
2019-03-09T04:43:26.738Z,2.00
2019-03-09T04:45:56.412Z,2.02
2019-03-09T04:48:28.035Z,1.92
2019-03-09T04:50:57.627Z,1.85
2019-03-09T04:53:27.208Z,1.97
2019-03-09T04:55:57.759Z,1.75
2019-03-09T04:58:28.531Z,1.83
2019-03-09T05:00:58.176Z,1.80
2019-03-09T05:03:28.163Z,2.00
2019-03-09T05:06:03.718Z,2.80
2019-03-09T05:08:42.187Z,3.27
2019-03-09T05:11:12.404Z,3.22
2019-03-09T05:13:42.658Z,3.00
2019-03-09T05:16:12.205Z,3.22
2019-03-09T05:18:41.780Z,3.40
2019-03-09T05:21:11.280Z,3.85
2019-03-09T05:23:40.805Z,3.17
2019-03-09T05:26:10.461Z,3.12
2019-03-09T05:28:39.927Z,3.60
2019-03-09T05:31:09.624Z,3.37
2019-03-09T05:33:39.246Z,3.47
2019-03-09T05:36:08.701Z,2.83
2019-03-09T05:38:38.208Z,3.00
2019-03-09T05:41:07.637Z,3.37
2019-03-09T05:43:37.046Z,3.40
2019-03-09T05:46:07.532Z,3.83
2019-03-09T05:48:37.171Z,3.50
2019-03-09T05:51:06.603Z,3.37
2019-03-09T05:53:36.065Z,3.42
2019-03-09T05:56:07.716Z,3.43
2019-03-09T05:58:36.840Z,3.60
2019-03-09T06:01:06.423Z,3.07
2019-03-09T06:03:35.874Z,8.00
2019-03-09T06:06:05.310Z,4.30
2019-03-09T06:08:34.810Z,3.57
2019-03-09T06:11:04.378Z,3.60
2019-03-09T06:13:34.254Z,8.40
2019-03-09T06:16:03.848Z,10.30
2019-03-09T06:18:33.342Z,9.83
2019-03-09T06:21:04.190Z,8.55
2019-03-09T06:23:33.614Z,7.80
2019-03-09T06:26:03.229Z,8.58
2019-03-09T06:28:32.767Z,7.35
2019-03-09T06:31:02.262Z,7.53
2019-03-09T06:33:32.039Z,6.28
2019-03-09T06:36:07.720Z,6.30
2019-03-09T06:38:51.772Z,6.42
2019-03-09T06:41:27.011Z,6.62
2019-03-09T06:43:56.601Z,4.55
2019-03-09T06:46:26.210Z,4.35
2019-03-09T06:48:57.267Z,4.10
2019-03-09T06:51:28.699Z,4.77
2019-03-09T06:53:58.222Z,4.30
2019-03-09T06:56:27.687Z,4.47
2019-03-09T06:58:57.129Z,4.80
2019-03-09T07:01:27.611Z,4.20
2019-03-09T07:03:57.115Z,4.90
2019-03-09T07:06:26.564Z,4.40
2019-03-09T07:09:19.978Z,4.53
2019-03-09T07:11:49.471Z,4.80
2019-03-09T07:14:53.950Z,4.37
2019-03-09T07:17:23.389Z,3.85
2019-03-09T07:19:53.119Z,5.20
2019-03-09T07:22:22.660Z,4.40
2019-03-09T07:24:52.197Z,4.10
2019-03-09T07:27:21.711Z,4.47
2019-03-09T07:29:51.157Z,3.90
2019-03-09T07:32:20.707Z,3.93
2019-03-09T07:34:50.152Z,3.55
2019-03-09T07:37:19.613Z,4.20
2019-03-09T07:39:50.069Z,3.45
2019-03-09T07:42:19.530Z,4.10
2019-03-09T07:44:49.011Z,3.57
2019-03-09T07:47:18.403Z,3.40
2019-03-09T07:49:49.058Z,3.30
2019-03-09T07:52:34.985Z,3.15
2019-03-09T07:55:13.827Z,3.20
2019-03-09T07:57:44.412Z,2.85
2019-03-09T08:00:19.150Z,2.80
2019-03-09T08:02:49.101Z,2.35
2019-03-09T08:05:19.646Z,2.40
2019-03-09T08:07:49.157Z,2.50
2019-03-09T08:10:20.124Z,2.58
2019-03-09T08:12:49.661Z,2.15
2019-03-09T08:15:20.044Z,2.45
2019-03-09T08:17:49.640Z,2.47
2019-03-09T08:20:21.127Z,2.52
2019-03-09T08:22:50.645Z,2.50
2019-03-09T08:25:25.501Z,2.70
2019-03-09T08:27:55.245Z,2.70
2019-03-09T08:46:08.863Z,3.08
2019-03-09T08:48:38.729Z,2.53
2019-03-09T08:51:08.505Z,2.60
2019-03-09T08:53:38.148Z,3.00
2019-03-09T08:56:07.691Z,2.57
2019-03-09T08:58:37.223Z,2.90
2019-03-09T09:01:06.878Z,2.60
2019-03-09T09:03:36.419Z,2.67
2019-03-09T09:06:06.075Z,2.60
2019-03-09T09:08:47.395Z,2.67
2019-03-09T09:17:08.289Z,2.40
2019-03-09T09:19:37.951Z,2.20
2019-03-09T09:22:07.741Z,2.47
2019-03-09T09:24:49.515Z,2.63
2019-03-09T09:27:14.394Z,2.30
2019-03-09T09:29:43.914Z,2.72
2019-03-09T09:32:13.392Z,2.10
2019-03-09T09:34:42.927Z,2.27
2019-03-09T09:37:12.501Z,2.52
2019-03-09T09:39:42.179Z,2.47
2019-03-09T09:42:11.839Z,2.73
2019-03-09T09:44:41.288Z,2.90
2019-03-09T09:47:10.876Z,2.77
2019-03-09T09:49:40.408Z,2.80
2019-03-09T09:52:09.866Z,3.22
2019-03-09T09:54:39.378Z,2.77
2019-03-09T09:57:08.956Z,3.30
2019-03-09T09:59:38.497Z,3.20
2019-03-09T10:02:08.094Z,2.83
2019-03-09T10:04:37.521Z,3.60
2019-03-09T10:07:11.222Z,3.40
2019-03-09T10:09:40.810Z,3.40
2019-03-09T10:12:10.338Z,2.73
2019-03-09T10:14:39.876Z,3.23
2019-03-09T10:17:09.335Z,3.12
2019-03-09T10:19:38.756Z,3.42
2019-03-09T10:22:09.172Z,2.92
2019-03-09T10:24:38.717Z,3.30
2019-03-09T10:27:08.159Z,3.02
2019-03-09T10:29:37.795Z,2.62
2019-03-09T10:32:07.342Z,3.20
2019-03-09T10:34:36.863Z,3.20
2019-03-09T10:37:06.453Z,3.22
2019-03-09T10:39:36.065Z,3.20
2019-03-09T10:42:05.704Z,3.05
2019-03-09T10:44:35.296Z,3.20
2019-03-09T10:47:04.924Z,2.90
2019-03-09T10:49:34.541Z,3.10
2019-03-09T10:52:05.123Z,3.33
2019-03-09T10:54:36.250Z,3.10
2019-03-09T10:57:06.060Z,3.20
2019-03-09T10:59:35.651Z,3.40
2019-03-09T11:02:06.202Z,2.70
2019-03-09T11:04:35.862Z,3.40
2019-03-09T11:07:05.412Z,2.70
2019-03-09T11:09:40.879Z,3.52
2019-03-09T11:12:23.555Z,2.90
2019-03-09T11:14:53.255Z,2.95
2019-03-09T11:17:22.755Z,2.87
2019-03-09T11:19:52.266Z,2.90
2019-03-09T11:22:21.878Z,2.92
2019-03-09T11:24:51.328Z,2.65
2019-03-09T11:27:21.192Z,2.75
2019-03-09T11:29:51.060Z,2.75
2019-03-09T11:32:20.511Z,3.10
2019-03-09T11:34:50.077Z,3.08
2019-03-09T11:37:20.138Z,2.70
2019-03-09T11:39:50.313Z,2.65
2019-03-09T11:42:20.875Z,2.62
2019-03-09T11:44:50.958Z,2.72
2019-03-09T11:47:20.446Z,2.77
2019-03-09T11:49:49.889Z,2.50
2019-03-09T11:52:20.635Z,2.87
2019-03-09T11:54:50.204Z,2.67
2019-03-09T11:57:19.722Z,3.05
2019-03-09T11:59:49.212Z,2.72
2019-03-09T12:02:18.982Z,2.95
2019-03-09T12:04:48.488Z,3.00
2019-03-09T12:07:17.941Z,2.70
2019-03-09T12:09:47.500Z,2.62
2019-03-09T12:12:17.957Z,2.80
2019-03-09T12:14:47.424Z,2.90
2019-03-09T12:17:16.922Z,2.75
2019-03-09T12:19:46.465Z,2.87
2019-03-09T12:22:15.960Z,2.70
2019-03-09T12:24:48.577Z,2.47
2019-03-09T12:27:18.090Z,2.37
2019-03-09T12:29:47.671Z,2.77
2019-03-09T12:32:17.101Z,2.90
2019-03-09T12:34:46.515Z,2.83
2019-03-09T12:37:16.011Z,3.40
2019-03-09T12:39:45.579Z,2.63
2019-03-09T12:42:15.111Z,2.47
2019-03-09T12:44:53.769Z,2.93
2019-03-09T12:47:23.267Z,3.30
2019-03-09T12:49:52.867Z,3.08
2019-03-09T12:52:23.303Z,2.60
2019-03-09T12:54:53.988Z,2.80
2019-03-09T12:57:23.437Z,2.60
2019-03-09T12:59:52.936Z,2.85
2019-03-09T13:02:22.352Z,2.37
2019-03-09T13:04:51.888Z,2.15
2019-03-09T13:07:23.264Z,1.93
2019-03-09T13:09:52.877Z,2.40
2019-03-09T13:12:22.384Z,2.15
2019-03-09T13:14:52.301Z,2.10
2019-03-09T13:17:21.813Z,2.30
2019-03-09T13:19:51.409Z,2.10
2019-03-09T13:22:26.478Z,2.02
2019-03-09T13:24:56.148Z,2.13
2019-03-09T13:27:25.702Z,2.10
2019-03-09T13:29:55.295Z,1.90
2019-03-09T13:32:27.716Z,1.90
2019-03-09T13:37:25.953Z,2.80
2019-03-09T13:39:55.487Z,2.10
2019-03-09T13:42:25.042Z,2.10
2019-03-09T13:44:54.507Z,2.40
2019-03-09T13:47:23.954Z,1.92
2019-03-09T13:49:53.380Z,2.10
2019-03-09T13:52:22.934Z,2.20
2019-03-09T13:54:53.151Z,2.10
2019-03-09T13:57:22.706Z,2.10
2019-03-09T13:59:52.297Z,2.10
2019-03-09T14:02:21.905Z,2.30
2019-03-09T14:04:51.417Z,1.93
2019-03-09T14:07:20.897Z,1.73
2019-03-09T14:09:50.437Z,2.02
2019-03-09T14:12:21.129Z,2.08
2019-03-09T14:14:50.791Z,1.83
2019-03-09T14:17:20.241Z,2.10
2019-03-09T14:19:50.153Z,2.20
2019-03-09T14:22:27.154Z,2.02
2019-03-09T14:24:59.403Z,2.20
2019-03-09T14:27:30.710Z,2.03
2019-03-09T14:30:30.158Z,2.00
2019-03-09T14:33:00.764Z,2.20
2019-03-09T14:35:30.405Z,2.20
2019-03-09T14:37:59.935Z,1.93
2019-03-09T14:40:29.733Z,2.15
2019-03-09T14:42:59.381Z,2.60
2019-03-09T14:45:29.165Z,2.40
2019-03-09T14:51:08.128Z,2.50
2019-03-09T14:53:41.341Z,2.00
2019-03-09T14:56:11.039Z,2.52
2019-03-09T15:01:27.463Z,2.60
2019-03-09T15:03:57.075Z,2.75
2019-03-09T15:09:36.218Z,2.60
2019-03-09T15:12:05.835Z,2.50
2019-03-09T15:14:35.377Z,2.50
2019-03-09T15:17:05.018Z,2.60
2019-03-09T15:19:34.598Z,2.53
2019-03-09T15:22:04.280Z,2.80
2019-03-09T15:24:34.396Z,2.67
2019-03-09T15:27:13.579Z,2.45
2019-03-09T15:29:44.716Z,2.43
2019-03-09T15:32:14.375Z,2.50
2019-03-09T15:34:44.148Z,2.90
2019-03-09T15:37:16.855Z,2.33
2019-03-09T15:39:48.255Z,2.65
2019-03-09T15:42:23.164Z,2.70
2019-03-09T15:44:52.732Z,2.67
2019-03-09T15:47:22.332Z,2.83
2019-03-09T15:49:51.785Z,3.22
2019-03-09T15:52:21.413Z,2.92
2019-03-09T15:54:51.045Z,2.40
2019-03-09T15:57:20.509Z,2.58
2019-03-09T15:59:50.128Z,2.77
2019-03-09T16:02:19.772Z,2.57
2019-03-09T16:04:49.324Z,2.50
2019-03-09T16:07:18.831Z,2.70
2019-03-09T16:10:07.746Z,4.65
2019-03-09T16:12:40.046Z,5.53
2019-03-09T16:15:14.607Z,3.87
2019-03-09T16:17:48.955Z,2.80
2019-03-09T16:20:21.334Z,3.05
2019-03-09T16:25:19.667Z,4.10
2019-03-09T16:27:49.634Z,3.10
2019-03-09T16:30:23.375Z,6.37
2019-03-09T16:32:53.566Z,5.30
2019-03-09T16:35:23.179Z,3.97
2019-03-09T16:37:53.161Z,3.92
2019-03-09T16:40:23.172Z,3.75
2019-03-09T16:42:53.211Z,3.10
2019-03-09T16:45:22.915Z,3.57
2019-03-09T16:47:52.897Z,9.50
2019-03-09T16:50:22.419Z,5.70
2019-03-09T16:52:52.020Z,8.03
2019-03-09T16:55:21.554Z,4.53
2019-03-09T16:57:52.264Z,4.55
2019-03-09T17:00:23.989Z,6.15
2019-03-09T17:05:22.334Z,14.27
2019-03-09T17:07:51.783Z,9.57
2019-03-09T17:10:21.383Z,6.12
2019-03-09T17:12:51.452Z,4.47
2019-03-09T17:15:25.519Z,3.70
2019-03-09T17:17:55.157Z,4.05
2019-03-09T17:20:26.770Z,3.73
2019-03-09T17:22:56.280Z,4.30
2019-03-09T17:25:25.981Z,6.53
2019-03-09T17:27:55.399Z,9.13
2019-03-09T17:30:24.964Z,4.87
2019-03-09T17:32:54.655Z,9.33
2019-03-09T17:35:25.714Z,6.87
2019-03-09T17:37:55.169Z,6.60
2019-03-09T17:40:24.811Z,7.20
2019-03-09T17:42:54.508Z,5.73
2019-03-09T17:45:25.588Z,10.17
2019-03-09T17:47:55.540Z,8.50
2019-03-09T17:50:25.227Z,6.30
2019-03-09T17:52:55.040Z,5.85
2019-03-09T17:55:25.740Z,4.70
2019-03-09T17:57:55.488Z,4.83
2019-03-09T18:00:42.172Z,9.70
2019-03-09T18:03:04.782Z,13.43
2019-03-09T18:05:34.343Z,12.10
2019-03-09T18:08:03.881Z,11.27
2019-03-09T18:10:36.491Z,14.50
2019-03-09T18:13:06.050Z,35.10
2019-03-09T18:15:37.930Z,24.67
2019-03-09T18:18:09.082Z,9.67
2019-03-09T18:20:38.805Z,10.43
2019-03-09T18:23:08.425Z,44.97
2019-03-09T18:25:39.659Z,13.03
2019-03-09T18:28:10.093Z,15.85
2019-03-09T18:30:39.541Z,7.83
2019-03-09T18:33:09.170Z,7.85
2019-03-09T18:35:41.624Z,7.30
2019-03-09T18:38:10.844Z,7.60
2019-03-09T18:40:40.390Z,7.33
2019-03-09T18:43:10.447Z,9.10
2019-03-09T18:45:40.194Z,9.48
2019-03-09T18:48:09.786Z,10.20
2019-03-09T18:50:39.832Z,9.48
2019-03-09T18:53:09.440Z,9.37
2019-03-09T18:55:39.779Z,9.18
2019-03-09T18:58:09.563Z,10.03
2019-03-09T19:00:39.524Z,10.68
2019-03-09T19:03:10.036Z,12.73
2019-03-09T19:05:39.799Z,13.98
2019-03-09T19:08:09.847Z,12.13
2019-03-09T19:10:39.395Z,9.30
2019-03-09T19:13:12.434Z,10.25
2019-03-09T19:15:42.053Z,8.45
2019-03-09T19:18:11.664Z,6.10
2019-03-09T19:20:41.508Z,7.57
2019-03-09T19:23:11.229Z,7.55
2019-03-09T19:25:40.747Z,10.72
2019-03-09T19:28:10.793Z,12.87
2019-03-09T19:30:41.463Z,9.67
2019-03-09T19:33:10.902Z,7.20
2019-03-09T19:35:40.525Z,7.20
2019-03-09T19:38:10.844Z,6.30
2019-03-09T19:40:40.331Z,6.00
2019-03-09T19:43:09.898Z,6.25
2019-03-09T19:45:39.540Z,6.58
2019-03-09T19:48:10.104Z,6.40
2019-03-09T19:50:39.562Z,6.33
2019-03-09T19:53:11.039Z,5.65
2019-03-09T19:55:40.737Z,6.00
2019-03-09T19:58:10.264Z,6.72
2019-03-09T20:00:40.855Z,6.34
2019-03-09T20:03:11.038Z,9.68
2019-03-09T20:05:41.453Z,5.72
2019-03-09T20:08:10.908Z,5.03
2019-03-09T20:10:41.451Z,4.50
2019-03-09T20:13:11.381Z,4.85
2019-03-09T20:15:42.022Z,5.08
2019-03-09T20:18:11.831Z,5.22
2019-03-09T20:20:41.361Z,5.62
2019-03-09T20:23:10.799Z,6.60
2019-03-09T20:25:40.344Z,5.15
2019-03-09T20:28:09.973Z,9.03
2019-03-09T20:30:39.746Z,5.00
2019-03-09T20:33:10.262Z,5.03
2019-03-09T20:35:40.781Z,4.92
2019-03-09T20:38:10.784Z,4.50
2019-03-09T20:40:40.510Z,4.35
2019-03-09T20:43:10.548Z,4.67
2019-03-09T20:45:40.173Z,5.87
2019-03-09T20:48:10.171Z,4.62
2019-03-09T20:50:40.966Z,4.80
2019-03-09T20:53:15.008Z,3.47
2019-03-09T20:55:44.883Z,4.78
2019-03-09T20:58:15.376Z,5.17
2019-03-09T21:00:45.568Z,4.78
2019-03-09T21:03:15.048Z,5.67
2019-03-09T21:05:46.603Z,6.17
2019-03-09T21:08:16.359Z,5.90
2019-03-09T21:10:47.080Z,6.10
2019-03-09T21:13:16.569Z,6.17
2019-03-09T21:15:46.857Z,5.12
2019-03-09T21:18:16.304Z,5.85
2019-03-09T21:20:46.452Z,7.35
2019-03-09T21:23:15.987Z,6.40
2019-03-09T21:25:47.492Z,6.30
2019-03-09T21:28:17.815Z,5.87
2019-03-09T21:30:50.533Z,5.87
2019-03-09T21:33:21.310Z,5.70
2019-03-09T21:38:51.756Z,6.05
2019-03-09T21:41:22.575Z,7.12
2019-03-09T21:43:52.101Z,10.20
2019-03-09T21:46:21.801Z,10.25
2019-03-09T21:48:53.036Z,10.63
2019-03-09T21:51:22.710Z,9.15
2019-03-09T21:53:52.284Z,8.88
2019-03-09T21:56:23.084Z,8.38
2019-03-09T21:58:52.694Z,8.78
2019-03-09T22:01:22.735Z,7.80
2019-03-09T22:03:52.906Z,8.13
2019-03-09T22:06:22.859Z,8.38
2019-03-09T22:08:53.437Z,8.08
2019-03-09T22:11:34.399Z,8.68
2019-03-09T22:14:06.965Z,8.35
2019-03-09T22:16:55.961Z,7.92
2019-03-09T22:19:32.449Z,8.53
2019-03-09T22:22:06.380Z,8.28
2019-03-09T22:24:35.934Z,8.45
2019-03-09T22:27:05.717Z,8.53
2019-03-09T22:29:36.495Z,8.70
2019-03-09T22:32:06.423Z,8.40
2019-03-09T22:34:36.234Z,8.45
2019-03-09T22:37:06.732Z,8.50
2019-03-09T22:39:36.326Z,7.80
2019-03-09T22:42:06.761Z,8.14
2019-03-09T22:44:38.713Z,8.80
2019-03-09T22:47:11.789Z,8.13
2019-03-09T22:49:42.066Z,8.58
2019-03-09T22:52:11.792Z,8.30
2019-03-09T22:54:41.568Z,9.63
2019-03-09T22:57:11.398Z,8.60
2019-03-09T22:59:41.043Z,6.97
2019-03-09T23:02:10.922Z,7.65
2019-03-09T23:04:40.390Z,7.75
2019-03-09T23:07:10.327Z,7.45
2019-03-09T23:09:40.504Z,6.95
2019-03-09T23:12:10.942Z,6.80
2019-03-09T23:14:42.146Z,8.90
2019-03-09T23:17:12.740Z,10.15
2019-03-09T23:19:42.170Z,7.37
2019-03-09T23:22:12.688Z,7.30
2019-03-09T23:24:42.751Z,7.22
2019-03-09T23:27:12.251Z,6.75
2019-03-09T23:29:42.084Z,6.40
2019-03-09T23:32:11.788Z,6.12
2019-03-09T23:34:43.119Z,6.62
2019-03-09T23:39:48.623Z,6.00
2019-03-09T23:42:21.985Z,5.72
2019-03-09T23:45:02.140Z,6.75
2019-03-09T23:47:39.106Z,6.93
2019-03-09T23:50:12.104Z,6.80
2019-03-09T23:52:51.565Z,7.00
2019-03-09T23:55:51.154Z,6.62
2019-03-09T23:58:28.304Z,4.80
